createdAt,value
2023-05-08T00:00:59.423Z,6.26
2023-05-08T00:03:26.765Z,6.26
2023-05-08T00:05:56.394Z,6.26
2023-05-08T00:08:22.860Z,6.26
2023-05-08T00:10:49.514Z,6.27
2023-05-08T00:13:19.213Z,6.27
2023-05-08T00:15:47.402Z,6.27
2023-05-08T00:18:13.728Z,6.26
2023-05-08T00:20:41.220Z,6.26
2023-05-08T00:23:07.808Z,6.24
2023-05-08T00:25:34.272Z,6.23
2023-05-08T00:28:00.812Z,6.23
2023-05-08T00:30:27.598Z,6.23
2023-05-08T00:32:54.116Z,6.22
2023-05-08T00:35:20.887Z,6.22
2023-05-08T00:37:47.117Z,6.24
2023-05-08T00:40:13.553Z,6.25
2023-05-08T00:42:40.062Z,6.25
2023-05-08T00:45:07.901Z,6.25
2023-05-08T00:47:34.932Z,6.25
2023-05-08T00:50:01.294Z,6.25
2023-05-08T00:52:27.693Z,6.24
2023-05-08T00:54:53.814Z,6.23
2023-05-08T00:57:19.960Z,6.24
2023-05-08T00:59:46.563Z,6.24
2023-05-08T01:02:13.134Z,6.24
2023-05-08T01:04:39.692Z,6.24
2023-05-08T01:07:06.854Z,6.24
2023-05-08T01:09:33.264Z,6.23
2023-05-08T01:12:11.632Z,6.24
2023-05-08T01:14:47.322Z,6.23
2023-05-08T01:17:19.746Z,6.23
2023-05-08T01:19:55.092Z,6.22
2023-05-08T01:22:43.844Z,6.22
2023-05-08T01:25:23.425Z,6.22
2023-05-08T01:28:05.037Z,6.21
2023-05-08T01:30:46.836Z,6.20
2023-05-08T01:33:17.061Z,6.19
2023-05-08T01:35:45.860Z,6.18
2023-05-08T01:38:18.757Z,6.17
2023-05-08T01:40:56.265Z,6.15
2023-05-08T01:43:30.778Z,6.14
2023-05-08T01:45:57.260Z,6.12
2023-05-08T01:48:34.274Z,6.09
2023-05-08T01:51:04.624Z,6.08
2023-05-08T01:53:40.593Z,6.07
2023-05-08T01:56:11.810Z,6.05
2023-05-08T01:58:38.565Z,6.04
2023-05-08T02:01:04.960Z,6.04
2023-05-08T02:03:31.691Z,6.05
2023-05-08T02:05:58.789Z,6.04
2023-05-08T02:08:25.085Z,6.05
2023-05-08T02:10:51.367Z,6.01
2023-05-08T02:13:19.474Z,6.00
2023-05-08T02:15:47.618Z,6.00
2023-05-08T02:18:13.865Z,5.98
2023-05-08T02:20:40.109Z,5.97
2023-05-08T02:23:06.277Z,5.96
2023-05-08T02:25:32.632Z,5.95
2023-05-08T02:27:58.823Z,5.95
2023-05-08T02:30:25.650Z,5.94
2023-05-08T02:32:51.928Z,5.93
2023-05-08T02:35:20.014Z,5.91
2023-05-08T02:37:50.590Z,5.92
2023-05-08T02:40:16.925Z,5.90
2023-05-08T02:42:43.808Z,5.89
2023-05-08T02:45:11.754Z,5.89
2023-05-08T02:48:01.378Z,5.88
2023-05-08T02:50:35.029Z,5.85
2023-05-08T02:53:07.648Z,5.84
2023-05-08T02:55:42.392Z,5.83
2023-05-08T02:58:24.774Z,5.82
2023-05-08T03:01:00.313Z,5.82
2023-05-08T03:03:32.514Z,5.82
2023-05-08T03:05:59.169Z,5.81
2023-05-08T03:08:29.280Z,5.78
2023-05-08T03:10:57.527Z,5.77
2023-05-08T03:13:24.098Z,5.78
2023-05-08T03:15:59.518Z,5.82
2023-05-08T03:18:30.779Z,5.84
2023-05-08T03:20:57.530Z,5.83
2023-05-08T03:23:24.356Z,5.84
2023-05-08T03:25:50.644Z,5.85
2023-05-08T03:28:17.102Z,5.81
2023-05-08T03:30:43.569Z,5.83
2023-05-08T03:33:12.660Z,5.86
2023-05-08T03:35:38.979Z,5.89
2023-05-08T03:38:07.338Z,5.91
2023-05-08T03:40:43.600Z,5.94
2023-05-08T03:45:26.665Z,5.98
2023-05-08T03:47:54.050Z,6.00
2023-05-08T03:50:21.888Z,6.01
2023-05-08T03:52:49.344Z,6.02
2023-05-08T03:55:16.610Z,6.01
2023-05-08T03:57:49.332Z,5.98
2023-05-08T04:00:26.988Z,5.97
2023-05-08T04:03:03.464Z,5.97
2023-05-08T04:05:37.862Z,5.98
2023-05-08T04:08:35.036Z,5.98
2023-05-08T04:11:27.255Z,6.00
2023-05-08T04:13:58.729Z,6.01
2023-05-08T04:16:27.937Z,6.04
2023-05-08T04:19:03.865Z,6.09
2023-05-08T04:21:32.914Z,6.19
2023-05-08T04:24:00.309Z,6.28
2023-05-08T04:26:27.778Z,6.38
2023-05-08T04:28:55.973Z,6.50
2023-05-08T04:31:23.053Z,6.63
2023-05-08T04:33:50.119Z,6.77
2023-05-08T04:36:17.209Z,6.90
2023-05-08T04:38:44.986Z,6.97
2023-05-08T04:41:12.743Z,6.96
2023-05-08T04:43:40.220Z,6.94
2023-05-08T04:46:08.673Z,6.96
2023-05-08T04:48:35.936Z,7.01
2023-05-08T04:51:03.042Z,7.07
2023-05-08T04:53:55.638Z,7.13
2023-05-08T04:56:22.660Z,7.23
2023-05-08T04:58:51.197Z,7.35
2023-05-08T05:01:19.688Z,7.50
2023-05-08T05:03:47.100Z,7.67
2023-05-08T05:06:14.330Z,7.85
2023-05-08T05:08:41.363Z,7.94
2023-05-08T05:11:08.596Z,7.97
2023-05-08T05:13:36.478Z,8.03
2023-05-08T05:16:03.868Z,8.08
2023-05-08T05:18:31.400Z,8.05
2023-05-08T05:20:59.501Z,8.02
2023-05-08T05:30:01.775Z,8.21
2023-05-08T05:32:31.028Z,8.20
2023-05-08T05:34:58.649Z,8.30
2023-05-08T05:37:26.293Z,8.42
2023-05-08T05:39:53.830Z,8.57
2023-05-08T05:42:21.973Z,8.65
2023-05-08T05:44:49.383Z,8.75
2023-05-08T05:47:17.297Z,8.85
2023-05-08T05:49:47.025Z,8.96
2023-05-08T05:52:14.563Z,9.05
2023-05-08T05:54:44.164Z,9.20
2023-05-08T05:57:13.281Z,9.26
2023-05-08T05:59:41.457Z,9.24
2023-05-08T06:02:10.620Z,9.24
2023-05-08T06:04:38.367Z,9.28
2023-05-08T06:07:07.205Z,9.36
2023-05-08T06:09:34.282Z,9.55
2023-05-08T06:12:01.346Z,9.86
2023-05-08T06:14:28.326Z,10.12
2023-05-08T06:16:55.203Z,10.44
2023-05-08T06:19:24.253Z,10.76
2023-05-08T06:21:52.144Z,10.89
2023-05-08T06:24:19.303Z,10.98
2023-05-08T06:26:46.995Z,10.96
2023-05-08T06:29:14.026Z,10.86
2023-05-08T06:31:41.252Z,11.01
2023-05-08T06:34:09.088Z,11.33
2023-05-08T06:36:36.765Z,11.43
2023-05-08T06:39:06.869Z,11.43
2023-05-08T06:41:33.786Z,11.46
2023-05-08T06:44:00.854Z,11.39
2023-05-08T06:46:27.902Z,11.31
2023-05-08T06:48:54.820Z,11.21
2023-05-08T06:51:23.365Z,11.14
2023-05-08T06:53:50.526Z,11.11
2023-05-08T06:56:17.460Z,11.11
2023-05-08T06:58:48.441Z,11.13
2023-05-08T07:01:24.192Z,11.12
2023-05-08T07:03:51.370Z,11.20
2023-05-08T07:06:18.538Z,11.19
2023-05-08T07:08:45.511Z,11.11
2023-05-08T07:11:12.604Z,11.09
2023-05-08T07:13:39.627Z,11.14
2023-05-08T07:16:11.038Z,11.15
2023-05-08T07:18:38.198Z,11.30
2023-05-08T07:21:05.316Z,11.42
2023-05-08T07:23:32.327Z,11.52
2023-05-08T07:25:59.581Z,11.59
2023-05-08T07:28:26.937Z,11.56
2023-05-08T07:30:53.882Z,11.43
2023-05-08T07:33:21.033Z,11.48
2023-05-08T07:35:47.945Z,11.59
2023-05-08T07:38:15.198Z,11.68
2023-05-08T07:40:42.348Z,11.70
2023-05-08T07:43:09.706Z,11.81
2023-05-08T07:45:36.785Z,11.95
2023-05-08T07:48:03.961Z,12.14
2023-05-08T07:50:31.503Z,12.36
2023-05-08T07:52:58.414Z,12.44
2023-05-08T07:55:25.300Z,12.48
2023-05-08T07:57:52.608Z,12.49
2023-05-08T08:00:19.584Z,12.45
2023-05-08T08:02:46.732Z,12.35
2023-05-08T08:05:13.923Z,12.23
2023-05-08T08:07:41.363Z,12.12
2023-05-08T08:10:08.678Z,12.04
2023-05-08T08:12:36.053Z,12.06
2023-05-08T08:15:03.375Z,12.12
2023-05-08T08:17:31.026Z,12.18
2023-05-08T08:19:57.965Z,12.26
2023-05-08T08:22:25.690Z,12.30
2023-05-08T08:24:55.069Z,12.41
2023-05-08T08:27:22.908Z,12.64
2023-05-08T08:29:51.189Z,12.91
2023-05-08T08:32:19.856Z,12.98
2023-05-08T08:34:46.834Z,12.96
2023-05-08T08:37:13.703Z,12.92
2023-05-08T08:39:40.726Z,12.83
2023-05-08T08:42:07.644Z,12.89
2023-05-08T08:44:35.505Z,13.02
2023-05-08T08:47:02.965Z,13.00
2023-05-08T08:49:35.322Z,13.16
2023-05-08T08:52:39.317Z,13.41
2023-05-08T08:55:08.221Z,13.46
2023-05-08T08:57:37.096Z,13.50
2023-05-08T09:00:05.470Z,13.51
2023-05-08T09:02:33.191Z,13.61
2023-05-08T09:05:00.255Z,13.63
2023-05-08T09:07:27.706Z,13.53
2023-05-08T09:09:54.568Z,13.49
2023-05-08T09:12:21.544Z,13.51
2023-05-08T09:14:48.509Z,13.36
2023-05-08T09:17:15.503Z,13.17
2023-05-08T09:19:42.756Z,12.95
2023-05-08T09:22:10.773Z,12.78
2023-05-08T09:24:57.455Z,12.76
2023-05-08T09:27:25.703Z,12.86
2023-05-08T09:30:09.016Z,13.01
2023-05-08T09:32:39.813Z,13.08
2023-05-08T09:35:07.538Z,13.02
2023-05-08T09:37:37.216Z,12.92
2023-05-08T09:40:17.009Z,12.84
2023-05-08T09:42:44.177Z,12.85
2023-05-08T09:45:11.766Z,12.93
2023-05-08T09:47:40.333Z,12.94
2023-05-08T09:50:08.803Z,12.87
2023-05-08T09:52:37.594Z,12.73
2023-05-08T09:55:08.770Z,12.56
2023-05-08T09:57:41.081Z,12.49
2023-05-08T10:00:13.267Z,12.57
2023-05-08T10:02:41.609Z,12.70
2023-05-08T10:05:32.615Z,12.84
2023-05-08T10:08:17.616Z,12.92
2023-05-08T10:10:44.777Z,12.98
2023-05-08T10:13:11.876Z,13.07
2023-05-08T10:15:39.130Z,12.97
2023-05-08T10:18:07.253Z,12.98
2023-05-08T10:20:36.086Z,13.08
2023-05-08T10:23:03.705Z,13.13
2023-05-08T10:25:33.015Z,13.17
2023-05-08T10:28:02.648Z,13.28
2023-05-08T10:30:29.888Z,13.35
2023-05-08T10:32:58.571Z,13.42
2023-05-08T10:35:25.557Z,13.49
2023-05-08T10:37:52.475Z,13.61
2023-05-08T10:40:21.057Z,13.68
2023-05-08T10:42:48.370Z,13.63
2023-05-08T10:45:15.278Z,13.58
2023-05-08T10:47:48.096Z,13.48
2023-05-08T10:50:42.693Z,13.43
2023-05-08T10:53:47.904Z,13.44
2023-05-08T10:56:14.757Z,13.38
2023-05-08T10:58:41.724Z,13.32
2023-05-08T11:01:09.039Z,13.27
2023-05-08T11:03:41.568Z,13.26
2023-05-08T11:06:08.613Z,13.27
2023-05-08T11:08:54.632Z,13.17
2023-05-08T11:11:33.456Z,13.04
2023-05-08T11:14:11.691Z,13.09
2023-05-08T11:16:54.001Z,13.15
2023-05-08T11:19:22.169Z,13.10
2023-05-08T11:22:13.855Z,13.03
2023-05-08T11:25:03.843Z,13.01
2023-05-08T11:27:49.940Z,12.99
2023-05-08T11:30:36.217Z,12.98
2023-05-08T11:33:03.209Z,12.98
2023-05-08T11:35:41.487Z,12.96
2023-05-08T11:38:14.315Z,12.98
2023-05-08T11:41:10.434Z,12.98
2023-05-08T11:43:37.717Z,13.09
2023-05-08T11:46:06.416Z,13.06
2023-05-08T11:48:33.901Z,12.96
2023-05-08T11:51:01.129Z,12.98
2023-05-08T11:53:28.950Z,13.07
2023-05-08T11:55:55.989Z,13.09
2023-05-08T11:58:23.227Z,13.13
2023-05-08T12:00:50.164Z,13.12
2023-05-08T12:03:19.017Z,13.13
2023-05-08T12:05:46.456Z,13.09
2023-05-08T12:08:13.794Z,13.04
2023-05-08T12:10:47.045Z,13.00
2023-05-08T12:13:23.862Z,12.96
2023-05-08T12:15:53.400Z,12.98
2023-05-08T12:18:21.207Z,13.05
2023-05-08T12:20:58.312Z,13.04
2023-05-08T12:23:25.996Z,12.96
2023-05-08T12:25:55.782Z,12.78
2023-05-08T12:28:22.994Z,12.73
2023-05-08T12:30:50.267Z,12.75
2023-05-08T12:33:17.842Z,12.77
2023-05-08T12:35:44.751Z,12.74
2023-05-08T12:38:14.356Z,12.65
2023-05-08T12:40:45.572Z,12.55
2023-05-08T12:43:12.536Z,12.56
2023-05-08T12:45:40.627Z,12.60
2023-05-08T12:48:12.204Z,12.66
2023-05-08T12:50:40.225Z,12.73
2023-05-08T12:53:11.103Z,12.74
2023-05-08T12:55:39.058Z,12.72
2023-05-08T12:58:06.699Z,12.71
2023-05-08T13:00:43.728Z,12.66
2023-05-08T13:03:11.893Z,12.67
2023-05-08T13:05:45.846Z,12.63
2023-05-08T13:08:12.762Z,12.69
2023-05-08T13:10:49.822Z,12.72
2023-05-08T13:13:21.542Z,12.72
2023-05-08T13:15:48.902Z,12.72
2023-05-08T13:18:16.061Z,12.70
2023-05-08T13:20:43.498Z,12.69
2023-05-08T13:23:10.514Z,12.59
2023-05-08T13:25:38.309Z,12.59
2023-05-08T13:28:05.951Z,12.67
2023-05-08T13:30:33.810Z,12.75
2023-05-08T13:33:01.326Z,12.82
2023-05-08T13:35:31.115Z,12.81
2023-05-08T13:37:58.316Z,12.78
2023-05-08T13:40:25.547Z,12.69
2023-05-08T13:42:52.587Z,12.61
2023-05-08T13:45:19.712Z,12.60
2023-05-08T13:47:47.759Z,12.61
2023-05-08T13:50:15.933Z,12.57
2023-05-08T13:52:43.257Z,12.56
2023-05-08T13:55:11.575Z,12.56
2023-05-08T13:57:39.080Z,12.62
2023-05-08T14:00:06.815Z,12.72
2023-05-08T14:02:38.040Z,12.77
2023-05-08T14:05:07.334Z,12.75
2023-05-08T14:07:34.578Z,12.74
2023-05-08T14:10:01.556Z,12.75
2023-05-08T14:12:28.486Z,12.75
2023-05-08T14:14:55.502Z,12.74
2023-05-08T14:17:22.502Z,12.75
2023-05-08T14:19:49.513Z,12.71
2023-05-08T14:22:16.563Z,12.66
2023-05-08T14:24:44.371Z,12.66
2023-05-08T14:27:11.376Z,12.70
2023-05-08T14:29:38.450Z,12.69
2023-05-08T14:32:05.734Z,12.70
2023-05-08T14:34:32.984Z,12.70
2023-05-08T14:36:59.945Z,12.67
2023-05-08T14:39:26.987Z,12.66
2023-05-08T14:44:23.748Z,12.64
2023-05-08T14:46:50.946Z,12.56
2023-05-08T14:49:25.410Z,12.50
2023-05-08T14:52:00.262Z,12.50
2023-05-08T14:54:27.295Z,12.48
2023-05-08T14:56:54.329Z,12.43
2023-05-08T14:59:21.248Z,12.34
2023-05-08T15:01:48.160Z,12.24
2023-05-08T15:04:15.261Z,12.19
2023-05-08T15:06:42.151Z,12.11
2023-05-08T15:09:09.779Z,12.05
2023-05-08T15:11:37.239Z,12.01
2023-05-08T15:14:04.805Z,12.03
2023-05-08T15:16:32.476Z,12.03
2023-05-08T15:18:59.704Z,12.02
2023-05-08T15:21:27.451Z,11.99
2023-05-08T15:23:55.081Z,11.92
2023-05-08T15:26:22.728Z,11.91
2023-05-08T15:28:49.661Z,11.94
2023-05-08T15:31:17.382Z,11.94
2023-05-08T15:33:45.283Z,11.90
2023-05-08T15:36:13.513Z,11.87
2023-05-08T15:38:43.345Z,11.84
2023-05-08T15:41:14.579Z,11.78
2023-05-08T15:43:43.096Z,11.72
2023-05-08T15:46:10.385Z,11.68
2023-05-08T15:48:37.407Z,11.66
2023-05-08T15:51:04.416Z,11.60
2023-05-08T15:53:32.572Z,11.56
2023-05-08T15:55:59.490Z,11.53
2023-05-08T15:58:27.731Z,11.47
2023-05-08T16:16:06.736Z,11.17
2023-05-08T16:18:34.820Z,11.18
2023-05-08T16:21:01.662Z,11.17
2023-05-08T16:23:28.196Z,11.15
2023-05-08T16:25:54.553Z,11.13
2023-05-08T16:28:21.275Z,11.09
2023-05-08T16:30:47.659Z,11.06
2023-05-08T16:40:51.011Z,10.91
2023-05-08T16:50:18.102Z,10.83
2023-05-08T16:52:45.365Z,10.78
2023-05-08T16:55:12.983Z,10.74
2023-05-08T16:57:41.131Z,10.71
